Cedar City Regional Airport
KCDC : now visible

Airfield :











YOU CAN JOIN US ON...

 
LOGIN :

Register | Disclaimer

   EN    FR    IT 

 









Legend :    VFR   Marginal VFR   IFR   Intensive IFR   Very Intensive IFR
Visi :
Ceiling :
>= 8 km
>= 3000ft
5 to 8 km
1000 to 3000 ft
1500m to 5 km
500 to 1000 ft
800 to 1500m
200 to 500 ft
< 800m
< 200 ft
Symbols :   Thunderstorms  Fog  Heavy snow  Heavy precipitations  Wind > 20 kt







- Airport Elevation : 5622 ft
- IATA code : CDC


KCDC - Cedar City Regional

CURRENT METAR :
  • 162053Z AUTO 19022G32KT 10SM CLR 25/00 A3000 RMK AO2 PK WND 22034/2021 SLP084 T02500000 58009

EXPIRED METARs :
  • 161953Z AUTO 19023G31KT 10SM CLR 26/03 A3002 RMK AO2 PK WND 20035/1933 SLP084 T02610028
  • 161853Z AUTO 20018G30KT 10SM CLR 26/04 A3003 RMK AO2 PK WND 20034/1755 SLP088 T02610044

TAF KCDC
Valid from the 16 at 18:00 until the 17 at 18:00 UTC


161737Z 1618/1718 20025G35KT P6SM SCT080 SCT120
FM170300 21020G30KT P6SM SCT080 BKN120
FM171400 24012G25KT P6SM SCT080 SCT120
No reported NOTAMs for that airfield.



MET'MAP, your aeronautical weather chart ! - Copyright ORBIFLY December 2007 - Disclaimer

ORBIFLY MET'MAP TEAM :

Programming & Development : Alexandra Zaïnal
Concept & Development : Baudouin d'Aumeries
Co-Development & Prog : Marc-Olivier Méhu
Technical & hardware support : Manuel Goepfert

Contact : metmap@orbifly.com




SOURCES & CREDITS :

   NOAA       Earth
Advisory